Time;durP1;ratioP1;P1;durP2;ratioP2;P2;SDS_P1;SDS_P2;PMS_P1;PMS_P2;Temp;Humidity;BMP_temperature;BMP_pressure;BME280_temperature;BME280_humidity;BME280_pressure;Samples;Min_cycle;Max_cycle;Signal;HPM_P1;HPM_P2
2021/08/27 00:00:49;;;;;;;4.10;2.03;;;22.80;58.60;;;;;;5052240;28;20053;-48
2021/08/27 00:03:14;;;;;;;2.90;1.60;;;22.80;59.00;;;;;;5051245;28;20037;-45
2021/08/27 00:05:40;;;;;;;3.45;2.05;;;22.90;59.00;;;;;;5051589;28;20029;-46
2021/08/27 00:08:06;;;;;;;3.92;1.88;;;22.90;59.40;;;;;;5053146;28;20036;-54
2021/08/27 00:10:31;;;;;;;4.18;1.50;;;22.80;59.10;;;;;;5053976;28;20346;-46
2021/08/27 00:12:57;;;;;;;4.05;1.67;;;22.90;59.30;;;;;;5055370;28;20359;-46
2021/08/27 00:15:23;;;;;;;4.15;1.55;;;22.90;59.40;;;;;;5053038;28;20112;-46
2021/08/27 00:17:49;;;;;;;2.97;1.58;;;22.90;59.10;;;;;;5055124;28;20021;-46
2021/08/27 00:20:15;;;;;;;2.97;1.60;;;22.80;58.80;;;;;;5053817;28;20031;-46
2021/08/27 00:22:41;;;;;;;2.67;1.67;;;22.90;59.10;;;;;;5054672;28;20382;-47
2021/08/27 00:25:08;;;;;;;2.95;1.75;;;22.80;58.80;;;;;;5053873;28;20033;-54
2021/08/27 00:27:34;;;;;;;2.70;1.50;;;22.80;58.60;;;;;;5055026;28;20025;-47
2021/08/27 00:30:00;;;;;;;2.55;1.45;;;22.80;58.80;;;;;;5055106;28;20033;-47
2021/08/27 00:32:27;;;;;;;3.10;1.48;;;22.90;58.90;;;;;;5054039;28;20116;-46
2021/08/27 00:34:53;;;;;;;5.53;2.50;;;22.90;58.80;;;;;;5055053;28;20025;-45
2021/08/27 00:37:19;;;;;;;2.00;1.30;;;22.80;58.80;;;;;;5053911;28;20025;-50
2021/08/27 00:39:45;;;;;;;3.97;1.58;;;22.90;59.00;;;;;;5054924;28;20116;-45
2021/08/27 00:42:11;;;;;;;2.70;1.50;;;22.90;58.80;;;;;;5053614;28;20112;-45
2021/08/27 00:44:36;;;;;;;2.55;1.38;;;22.90;58.70;;;;;;5054792;28;20028;-46
2021/08/27 00:47:03;;;;;;;2.50;1.50;;;22.80;58.70;;;;;;5054805;28;20411;-45
2021/08/27 00:49:29;;;;;;;1.95;1.40;;;22.80;58.50;;;;;;5053942;28;20037;-45
2021/08/27 00:51:55;;;;;;;3.05;1.42;;;22.80;58.50;;;;;;5053229;28;20096;-45
2021/08/27 00:54:21;;;;;;;3.67;1.52;;;22.80;58.10;;;;;;5053493;28;20419;-46
2021/08/27 00:56:49;;;;;;;3.13;1.42;;;22.80;56.90;;;;;;5054533;28;20056;-45
2021/08/27 00:59:14;;;;;;;3.83;1.48;;;22.80;57.30;;;;;;5053089;28;20090;-46
2021/08/27 01:01:40;;;;;;;3.38;1.60;;;22.80;58.20;;;;;;5054660;28;20037;-45
2021/08/27 01:04:06;;;;;;;3.85;1.48;;;22.80;58.10;;;;;;5054079;28;20032;-53
2021/08/27 01:06:55;;;;;;;4.30;1.50;;;22.80;58.20;;;;;;5053563;28;20033;-45
2021/08/27 01:09:42;;;;;;;1.95;1.52;;;22.80;57.70;;;;;;5053227;28;20017;-46
2021/08/27 01:12:18;;;;;;;3.88;1.70;;;22.80;58.30;;;;;;5053484;28;20029;-53
2021/08/27 01:14:56;;;;;;;1.48;1.10;;;22.80;57.60;;;;;;5054285;28;20042;-46
2021/08/27 01:17:29;;;;;;;5.00;1.40;;;22.80;57.40;;;;;;5053054;28;20029;-50
2021/08/27 01:19:54;;;;;;;3.58;1.30;;;22.80;57.60;;;;;;5053156;28;20029;-45
2021/08/27 01:22:55;;;;;;;2.75;1.55;;;22.80;58.00;;;;;;5053009;28;20033;-46
2021/08/27 01:25:22;;;;;;;4.68;1.90;;;22.80;58.10;;;;;;5047864;28;20390;-45
2021/08/27 01:27:52;;;;;;;2.63;1.30;;;22.80;57.90;;;;;;5053132;28;20040;-47
2021/08/27 01:30:44;;;;;;;3.55;1.67;;;22.80;58.20;;;;;;5053265;28;20040;-46
2021/08/27 01:33:16;;;;;;;4.00;1.70;;;22.80;57.70;;;;;;5047207;28;20094;-54
2021/08/27 01:35:51;;;;;;;2.03;1.25;;;22.80;58.30;;;;;;5054037;28;20111;-46
2021/08/27 01:38:18;;;;;;;3.25;1.50;;;22.80;57.90;;;;;;5052575;28;20115;-46
2021/08/27 01:40:49;;;;;;;2.58;1.50;;;22.80;57.90;;;;;;5053516;28;20029;-46
2021/08/27 01:43:16;;;;;;;2.92;1.33;;;22.80;58.00;;;;;;5052674;28;20386;-45
2021/08/27 01:45:46;;;;;;;2.20;1.33;;;22.80;58.20;;;;;;5053515;28;20155;-45
2021/08/27 01:48:12;;;;;;;2.45;1.30;;;22.80;58.10;;;;;;5052813;28;20036;-48
2021/08/27 01:50:39;;;;;;;2.85;1.20;;;22.80;57.80;;;;;;5053598;28;20459;-46
2021/08/27 01:53:05;;;;;;;3.75;1.35;;;22.80;57.90;;;;;;5053394;28;20037;-46
2021/08/27 01:55:36;;;;;;;1.90;1.40;;;22.80;58.00;;;;;;5052305;28;20037;-46
2021/08/27 01:58:03;;;;;;;2.38;1.40;;;22.80;58.00;;;;;;5052898;28;20029;-45
2021/08/27 02:00:30;;;;;;;2.60;1.50;;;22.80;58.10;;;;;;5052118;28;20142;-47
2021/08/27 02:02:58;;;;;;;2.97;1.35;;;22.80;57.90;;;;;;5051922;28;20039;-48
2021/08/27 02:05:25;;;;;;;2.83;1.30;;;22.80;58.00;;;;;;5052387;28;20025;-46
2021/08/27 02:07:53;;;;;;;3.25;1.65;;;22.80;57.90;;;;;;5053080;28;20479;-45
2021/08/27 02:10:19;;;;;;;3.75;1.58;;;22.90;57.90;;;;;;5051718;28;20032;-46
2021/08/27 02:12:44;;;;;;;3.13;1.30;;;22.80;58.40;;;;;;5052406;28;20032;-46
2021/08/27 02:15:11;;;;;;;3.83;1.50;;;22.80;57.90;;;;;;5052397;28;20025;-54
2021/08/27 02:17:37;;;;;;;3.60;1.40;;;22.80;57.90;;;;;;5053002;28;20441;-46
2021/08/27 02:20:04;;;;;;;3.67;1.40;;;22.80;57.90;;;;;;5052558;28;20040;-45
2021/08/27 02:22:32;;;;;;;2.50;1.40;;;22.80;57.70;;;;;;5051590;28;20033;-45
2021/08/27 02:25:10;;;;;;;1.83;1.23;;;22.80;57.80;;;;;;5051966;28;20428;-45
2021/08/27 02:27:38;;;;;;;3.25;1.40;;;22.80;57.90;;;;;;5052439;28;20043;-45
2021/08/27 02:30:05;;;;;;;2.92;1.42;;;22.80;57.50;;;;;;5052382;28;20033;-46
2021/08/27 02:32:31;;;;;;;2.50;1.65;;;22.80;57.00;;;;;;5050818;28;20595;-46
2021/08/27 02:35:00;;;;;;;4.75;1.30;;;22.80;57.10;;;;;;5052398;28;20055;-46
2021/08/27 02:37:29;;;;;;;1.98;1.23;;;22.80;57.30;;;;;;5051699;28;20056;-47
2021/08/27 02:39:57;;;;;;;2.72;1.30;;;22.80;56.60;;;;;;5052197;28;20017;-46
2021/08/27 02:42:26;;;;;;;3.60;1.20;;;22.80;56.50;;;;;;5051612;28;20037;-46
2021/08/27 02:44:53;;;;;;;3.63;1.63;;;22.80;56.40;;;;;;5052056;28;20033;-46
2021/08/27 02:47:18;;;;;;;4.70;1.77;;;22.80;56.10;;;;;;5051450;28;20104;-46
2021/08/27 02:49:44;;;;;;;4.43;1.83;;;22.80;56.40;;;;;;5052181;28;20100;-46
2021/08/27 02:52:10;;;;;;;3.78;1.40;;;22.80;56.70;;;;;;5051965;28;20040;-53
2021/08/27 02:54:46;;;;;;;2.30;1.30;;;22.80;56.80;;;;;;5051849;28;20044;-46
2021/08/27 02:57:13;;;;;;;3.13;1.30;;;22.80;57.00;;;;;;5051810;28;20063;-53
2021/08/27 02:59:39;;;;;;;4.47;1.50;;;22.80;56.60;;;;;;5051794;28;20127;-46
2021/08/27 03:02:07;;;;;;;2.33;1.17;;;22.80;56.50;;;;;;5052063;28;20108;-46
2021/08/27 03:04:43;;;;;;;2.70;1.20;;;22.80;56.80;;;;;;5051005;28;20033;-46
2021/08/27 03:07:12;;;;;;;3.25;1.30;;;22.80;56.60;;;;;;5051773;28;20017;-47
2021/08/27 03:10:13;;;;;;;2.20;1.23;;;22.80;56.70;;;;;;5051551;28;20028;-47
2021/08/27 03:12:56;;;;;;;1.77;1.15;;;22.80;56.90;;;;;;5038924;28;20509;-46
2021/08/27 03:15:38;;;;;;;1.52;1.25;;;22.80;56.80;;;;;;5050604;28;20032;-46
2021/08/27 03:18:13;;;;;;;3.65;1.25;;;22.80;56.60;;;;;;5050819;28;20033;-45
2021/08/27 03:20:53;;;;;;;2.20;1.30;;;22.80;56.50;;;;;;5051749;28;20028;-46
2021/08/27 03:23:20;;;;;;;3.13;1.40;;;22.80;56.60;;;;;;5050960;28;20043;-46
2021/08/27 03:25:47;;;;;;;3.65;1.50;;;22.80;56.90;;;;;;5051811;28;20036;-46
2021/08/27 03:28:19;;;;;;;2.72;1.45;;;22.80;56.60;;;;;;5051485;28;20378;-55
2021/08/27 03:30:49;;;;;;;2.83;1.42;;;22.80;56.80;;;;;;5051423;28;20040;-46
2021/08/27 03:33:16;;;;;;;3.55;1.70;;;22.80;56.70;;;;;;5051075;28;20044;-54
2021/08/27 03:35:43;;;;;;;2.67;1.33;;;22.80;56.70;;;;;;5051809;28;20056;-47
2021/08/27 03:38:12;;;;;;;2.08;1.15;;;22.80;56.60;;;;;;5051836;28;20078;-46
2021/08/27 03:40:37;;;;;;;3.65;1.35;;;22.80;56.70;;;;;;5050972;28;20078;-45
2021/08/27 03:43:04;;;;;;;2.40;1.42;;;22.80;56.90;;;;;;5054092;28;20041;-48
2021/08/27 03:45:31;;;;;;;2.67;1.65;;;22.80;56.60;;;;;;5054543;28;20104;-46
2021/08/27 03:47:59;;;;;;;3.38;1.85;;;22.80;56.50;;;;;;5054723;28;20485;-46
2021/08/27 03:50:25;;;;;;;5.15;1.50;;;22.70;56.40;;;;;;5053717;28;20032;-47
2021/08/27 03:52:52;;;;;;;3.17;1.60;;;22.70;56.30;;;;;;5054428;28;20025;-46
2021/08/27 03:55:20;;;;;;;3.20;1.65;;;22.70;56.30;;;;;;5053424;28;20025;-46
2021/08/27 03:57:48;;;;;;;2.65;1.58;;;22.70;56.40;;;;;;5054215;28;20032;-46
2021/08/27 04:00:15;;;;;;;2.78;1.40;;;22.70;56.30;;;;;;5053201;28;20402;-53
2021/08/27 04:02:41;;;;;;;5.05;1.70;;;22.70;56.30;;;;;;5050285;28;20029;-46
2021/08/27 04:05:15;;;;;;;5.13;2.00;;;22.70;56.30;;;;;;5054184;28;20029;-46
2021/08/27 04:07:42;;;;;;;2.63;1.50;;;22.70;56.40;;;;;;5051662;28;20021;-46
2021/08/27 04:10:08;;;;;;;2.92;1.40;;;22.70;56.30;;;;;;5053978;28;20032;-46
2021/08/27 04:12:36;;;;;;;5.50;2.13;;;22.70;56.40;;;;;;5052863;28;20610;-47
2021/08/27 04:15:03;;;;;;;2.75;1.45;;;22.70;56.50;;;;;;5051582;28;20029;-46
2021/08/27 04:17:29;;;;;;;3.17;1.50;;;22.70;56.30;;;;;;5053940;28;20075;-46
2021/08/27 04:19:55;;;;;;;4.18;1.70;;;22.70;56.30;;;;;;5055371;28;20048;-46
2021/08/27 04:22:21;;;;;;;4.05;1.80;;;22.70;56.40;;;;;;5053061;28;20112;-46
2021/08/27 04:24:46;;;;;;;3.08;1.67;;;22.70;56.20;;;;;;5054884;28;20200;-46
2021/08/27 04:27:12;;;;;;;3.10;1.50;;;22.70;56.20;;;;;;5054812;28;20025;-53
2021/08/27 04:29:38;;;;;;;2.05;1.40;;;22.70;56.10;;;;;;5054385;28;20029;-45
2021/08/27 04:32:04;;;;;;;1.88;1.38;;;22.70;56.20;;;;;;5054782;28;20057;-46
2021/08/27 04:34:30;;;;;;;3.47;1.92;;;22.70;56.20;;;;;;5053623;28;20033;-45
2021/08/27 04:36:55;;;;;;;2.05;1.52;;;22.70;56.20;;;;;;5054598;28;20036;-46
2021/08/27 04:39:21;;;;;;;3.40;1.50;;;22.70;56.10;;;;;;5052958;28;20021;-45
2021/08/27 04:41:47;;;;;;;3.33;1.65;;;22.70;56.30;;;;;;5054546;28;20033;-47
2021/08/27 04:44:13;;;;;;;3.22;1.80;;;22.70;56.40;;;;;;5053931;28;20375;-54
2021/08/27 04:46:38;;;;;;;4.88;1.45;;;22.70;56.10;;;;;;5053943;28;20040;-45
2021/08/27 04:49:04;;;;;;;4.32;1.52;;;22.70;56.20;;;;;;5054533;28;20109;-46
2021/08/27 04:51:29;;;;;;;2.70;1.20;;;22.80;56.40;;;;;;5053557;28;20108;-46
2021/08/27 04:53:55;;;;;;;2.97;1.40;;;22.80;56.40;;;;;;5053598;28;20021;-45
2021/08/27 04:56:21;;;;;;;3.28;1.38;;;22.70;56.10;;;;;;5053665;28;20024;-47
2021/08/27 04:58:46;;;;;;;2.20;1.58;;;22.70;56.00;;;;;;5054023;28;20024;-45
2021/08/27 05:01:12;;;;;;;4.50;1.63;;;22.70;56.00;;;;;;5054218;28;20432;-45
2021/08/27 05:03:38;;;;;;;3.58;1.38;;;22.70;56.00;;;;;;5053478;28;20033;-46
2021/08/27 05:06:03;;;;;;;3.60;1.23;;;22.70;56.10;;;;;;5053272;28;20055;-47
2021/08/27 05:08:29;;;;;;;4.20;2.17;;;22.80;56.30;;;;;;5053342;28;20075;-45
2021/08/27 05:10:55;;;;;;;2.40;1.38;;;22.70;56.00;;;;;;5053817;28;20458;-45
2021/08/27 05:13:20;;;;;;;3.78;1.52;;;22.70;56.10;;;;;;5052038;28;20064;-46
2021/08/27 05:15:46;;;;;;;4.13;1.55;;;22.70;56.00;;;;;;5054113;28;20028;-46
2021/08/27 05:18:12;;;;;;;2.97;1.40;;;22.70;56.50;;;;;;5054168;28;20074;-46
2021/08/27 05:20:38;;;;;;;2.88;1.30;;;22.70;55.90;;;;;;5052970;28;20033;-45
2021/08/27 05:23:03;;;;;;;2.13;1.30;;;22.70;55.80;;;;;;5054036;28;20037;-48
2021/08/27 05:25:29;;;;;;;2.35;1.40;;;22.70;55.90;;;;;;5053103;28;20462;-45
2021/08/27 05:27:55;;;;;;;2.88;1.77;;;22.70;56.00;;;;;;5053957;28;20061;-46
2021/08/27 05:30:21;;;;;;;2.85;1.42;;;22.70;55.80;;;;;;5053169;28;20112;-51
2021/08/27 05:32:47;;;;;;;3.35;1.40;;;22.80;55.90;;;;;;5053654;28;20775;-53
2021/08/27 05:35:14;;;;;;;2.15;1.50;;;22.80;55.80;;;;;;5053279;28;20463;-47
2021/08/27 05:37:40;;;;;;;3.67;1.58;;;22.80;55.70;;;;;;5053073;28;20036;-46
2021/08/27 05:40:08;;;;;;;2.38;1.55;;;22.80;55.70;;;;;;5053746;28;20466;-46
2021/08/27 05:42:35;;;;;;;3.92;1.80;;;22.80;55.60;;;;;;5051509;28;20056;-48
2021/08/27 05:45:01;;;;;;;3.53;1.70;;;22.80;55.40;;;;;;5052747;28;20032;-49
2021/08/27 05:47:26;;;;;;;4.72;1.50;;;22.80;55.50;;;;;;5052280;28;20029;-51
2021/08/27 05:49:52;;;;;;;3.63;1.67;;;22.90;55.70;;;;;;5052629;28;20390;-47
2021/08/27 05:52:18;;;;;;;2.20;1.90;;;22.90;55.60;;;;;;5052738;28;20116;-53
2021/08/27 05:54:43;;;;;;;4.47;1.80;;;22.90;55.40;;;;;;5053153;28;20032;-48
2021/08/27 05:57:09;;;;;;;3.08;1.33;;;23.00;55.40;;;;;;5052670;28;20032;-49
2021/08/27 05:59:35;;;;;;;5.53;2.10;;;23.10;55.40;;;;;;5052130;28;20053;-47
2021/08/27 06:02:01;;;;;;;3.58;1.65;;;23.20;55.10;;;;;;5052684;28;20037;-48
2021/08/27 06:04:27;;;;;;;8.18;1.40;;;23.30;55.00;;;;;;5051316;28;20509;-45
2021/08/27 06:06:53;;;;;;;12.02;1.60;;;23.30;55.10;;;;;;5052875;28;20058;-47
2021/08/27 06:09:19;;;;;;;3.22;1.40;;;23.30;55.00;;;;;;5052229;28;20374;-56
2021/08/27 06:11:45;;;;;;;7.97;1.85;;;23.30;54.90;;;;;;5052213;28;20036;-49
2021/08/27 06:14:11;;;;;;;6.32;1.50;;;23.30;54.90;;;;;;5052579;28;20025;-47
2021/08/27 06:16:37;;;;;;;11.23;2.03;;;23.30;55.00;;;;;;5052026;28;20036;-52
2021/08/27 06:19:04;;;;;;;6.63;1.73;;;23.30;55.10;;;;;;5052379;28;20052;-50
2021/08/27 06:21:35;;;;;;;14.63;2.10;;;23.40;55.20;;;;;;5052150;28;20029;-49
2021/08/27 06:24:01;;;;;;;9.05;1.88;;;23.40;55.30;;;;;;5052659;28;20033;-53
2021/08/27 06:26:27;;;;;;;12.73;2.40;;;23.50;55.20;;;;;;5049759;28;20115;-58
2021/08/27 06:28:54;;;;;;;11.63;2.20;;;23.60;55.40;;;;;;5051630;28;20028;-50
2021/08/27 06:31:20;;;;;;;11.02;1.90;;;23.50;55.50;;;;;;5051000;28;20501;-58
2021/08/27 06:33:46;;;;;;;8.40;2.10;;;23.40;55.50;;;;;;5052134;28;20090;-55
2021/08/27 06:36:12;;;;;;;5.28;1.75;;;23.30;55.80;;;;;;5052156;28;20035;-55
2021/08/27 06:38:38;;;;;;;11.98;2.30;;;23.20;55.90;;;;;;5051633;28;20112;-56
2021/08/27 06:41:06;;;;;;;7.40;2.05;;;23.20;56.10;;;;;;5052673;28;20483;-54
2021/08/27 06:43:35;;;;;;;8.73;1.90;;;23.20;56.40;;;;;;5051567;28;20075;-57
2021/08/27 06:46:04;;;;;;;3.83;1.50;;;23.20;56.50;;;;;;5052405;28;20032;-54
2021/08/27 06:48:31;;;;;;;8.30;2.22;;;23.20;56.60;;;;;;5051923;28;20039;-56
2021/08/27 06:50:57;;;;;;;12.32;2.08;;;23.30;56.70;;;;;;5051325;28;20033;-56
2021/08/27 06:53:22;;;;;;;9.95;1.70;;;23.30;56.70;;;;;;5051431;28;20040;-57
2021/08/27 06:55:48;;;;;;;7.18;1.60;;;23.30;56.60;;;;;;5052476;28;20025;-53
2021/08/27 06:58:14;;;;;;;4.10;1.70;;;23.30;56.60;;;;;;5052336;28;20027;-49
2021/08/27 07:00:39;;;;;;;5.90;1.50;;;23.30;56.80;;;;;;5050823;28;20041;-55
2021/08/27 07:03:05;;;;;;;6.95;2.22;;;23.30;56.70;;;;;;5051826;28;20062;-53
2021/08/27 07:05:31;;;;;;;7.05;1.60;;;23.20;56.70;;;;;;5051329;28;20029;-55
2021/08/27 07:07:57;;;;;;;3.67;1.33;;;23.30;56.80;;;;;;5051681;28;20041;-55
2021/08/27 07:10:23;;;;;;;3.97;1.42;;;23.20;56.70;;;;;;5051272;28;20035;-52
2021/08/27 07:12:49;;;;;;;3.90;1.38;;;23.20;56.70;;;;;;5051929;28;20037;-53
2021/08/27 07:15:15;;;;;;;6.05;1.40;;;23.20;56.70;;;;;;5051679;28;20554;-55
2021/08/27 07:17:42;;;;;;;5.03;1.60;;;23.20;56.90;;;;;;5050049;28;20568;-52
2021/08/27 07:20:08;;;;;;;2.75;1.15;;;23.20;56.60;;;;;;5052009;28;20025;-54
2021/08/27 07:22:35;;;;;;;4.60;1.20;;;23.20;56.70;;;;;;5051148;28;20538;-55
2021/08/27 07:25:01;;;;;;;3.92;1.13;;;23.20;56.80;;;;;;5051935;28;20112;-55
2021/08/27 07:27:26;;;;;;;7.60;1.40;;;23.20;57.00;;;;;;5051095;28;20228;-56
2021/08/27 07:29:52;;;;;;;1.92;1.30;;;23.20;57.20;;;;;;5052009;28;20439;-55
2021/08/27 07:32:17;;;;;;;3.65;1.60;;;23.20;57.30;;;;;;5051763;28;20082;-55
2021/08/27 07:34:44;;;;;;;3.67;1.27;;;23.20;57.10;;;;;;5050487;28;20039;-54
2021/08/27 07:37:11;;;;;;;3.88;1.20;;;23.20;57.70;;;;;;5051868;28;20170;-55
2021/08/27 07:39:36;;;;;;;2.70;1.15;;;23.20;56.70;;;;;;5050719;28;20053;-57
2021/08/27 07:42:04;;;;;;;3.38;1.55;;;23.10;56.40;;;;;;5050468;28;20068;-55
2021/08/27 07:44:30;;;;;;;3.08;1.30;;;23.10;56.30;;;;;;5050992;28;20036;-53
2021/08/27 07:46:55;;;;;;;4.50;1.48;;;23.10;56.10;;;;;;5051859;28;20033;-53
2021/08/27 07:49:21;;;;;;;5.57;1.10;;;23.00;55.90;;;;;;5050984;28;20048;-56
2021/08/27 07:51:47;;;;;;;2.72;1.00;;;23.10;56.10;;;;;;5051391;28;20029;-55
2021/08/27 07:54:16;;;;;;;2.53;1.30;;;23.10;56.40;;;;;;5051407;28;20033;-53
2021/08/27 07:56:42;;;;;;;3.60;1.10;;;23.10;56.20;;;;;;5051097;28;20021;-56
2021/08/27 07:59:08;;;;;;;2.95;1.25;;;23.10;56.10;;;;;;5051149;28;20055;-55
2021/08/27 08:01:34;;;;;;;2.40;0.93;;;23.20;56.10;;;;;;5050197;28;20033;-56
2021/08/27 08:04:02;;;;;;;2.17;1.10;;;23.20;56.20;;;;;;5051025;28;20448;-55
2021/08/27 08:06:31;;;;;;;2.45;1.20;;;23.20;56.00;;;;;;5050779;28;20052;-49
2021/08/27 08:08:57;;;;;;;3.75;1.00;;;23.10;55.50;;;;;;5051172;28;20083;-55
2021/08/27 08:11:23;;;;;;;3.25;1.00;;;23.10;55.60;;;;;;5050985;28;20021;-56
2021/08/27 08:13:48;;;;;;;2.00;1.17;;;23.10;55.40;;;;;;5051004;28;20032;-53
2021/08/27 08:16:14;;;;;;;3.38;1.10;;;23.10;55.50;;;;;;5051539;28;20025;-55
2021/08/27 08:18:40;;;;;;;5.18;1.10;;;23.10;56.00;;;;;;5050293;28;20029;-54
2021/08/27 08:21:07;;;;;;;3.20;1.17;;;23.10;56.10;;;;;;5051444;28;20021;-56
2021/08/27 08:23:33;;;;;;;3.15;1.20;;;23.10;56.10;;;;;;5050581;28;20025;-50
2021/08/27 08:25:59;;;;;;;4.07;1.00;;;23.10;56.20;;;;;;5051396;28;20027;-54
2021/08/27 08:28:25;;;;;;;2.58;1.20;;;23.10;55.90;;;;;;5052042;28;20021;-56
2021/08/27 08:30:52;;;;;;;3.92;1.00;;;23.10;56.30;;;;;;5054640;28;20033;-55
2021/08/27 08:33:18;;;;;;;2.13;0.80;;;23.20;55.60;;;;;;5054718;28;20381;-54
2021/08/27 08:35:44;;;;;;;1.40;0.80;;;23.10;55.40;;;;;;5054038;28;20091;-50
2021/08/27 08:38:10;;;;;;;3.25;0.95;;;23.10;55.50;;;;;;5054141;28;20406;-53
2021/08/27 08:40:40;;;;;;;1.50;0.70;;;23.10;55.10;;;;;;5054107;28;20028;-54
2021/08/27 08:43:10;;;;;;;2.65;0.75;;;23.00;54.90;;;;;;5054891;28;20025;-56
2021/08/27 08:45:48;;;;;;;2.28;0.90;;;23.10;55.10;;;;;;5053683;28;20134;-55
2021/08/27 08:48:17;;;;;;;2.03;0.88;;;23.10;55.00;;;;;;5054670;28;20160;-55
2021/08/27 08:50:44;;;;;;;2.45;1.02;;;23.10;55.20;;;;;;5053862;28;20094;-54
2021/08/27 08:53:11;;;;;;;3.22;1.50;;;23.10;55.60;;;;;;5054267;28;20123;-48
2021/08/27 08:55:41;;;;;;;4.60;1.90;;;23.10;55.70;;;;;;5053685;28;20499;-55
2021/08/27 08:58:07;;;;;;;3.65;1.92;;;23.20;56.00;;;;;;5054617;28;20024;-54
2021/08/27 09:00:34;;;;;;;8.00;2.17;;;23.20;56.00;;;;;;5053699;28;20478;-55
2021/08/27 09:03:00;;;;;;;2.42;1.50;;;23.20;56.40;;;;;;5054005;28;20448;-54
2021/08/27 09:05:26;;;;;;;3.22;1.67;;;23.20;56.60;;;;;;5053170;28;20104;-57
2021/08/27 09:07:55;;;;;;;3.90;1.52;;;23.20;57.00;;;;;;5054645;28;20113;-54
2021/08/27 09:10:22;;;;;;;3.45;1.58;;;23.20;57.50;;;;;;5054246;28;20021;-54
2021/08/27 09:12:49;;;;;;;4.57;1.35;;;23.20;57.60;;;;;;5053625;28;20087;-54
2021/08/27 09:15:17;;;;;;;2.75;1.20;;;23.20;57.10;;;;;;5054326;28;20025;-56
2021/08/27 09:17:49;;;;;;;2.97;1.27;;;23.20;57.10;;;;;;5053492;28;20025;-56
2021/08/27 09:20:17;;;;;;;4.53;1.25;;;23.10;57.50;;;;;;5054007;28;20052;-54
2021/08/27 09:22:48;;;;;;;3.58;1.10;;;23.10;56.80;;;;;;5052817;28;20844;-52
2021/08/27 09:25:19;;;;;;;3.08;1.10;;;23.20;56.60;;;;;;5053906;28;20065;-52
2021/08/27 09:28:03;;;;;;;4.97;1.48;;;23.20;56.70;;;;;;5053397;28;20075;-57
2021/08/27 09:30:30;;;;;;;1.45;0.88;;;23.20;56.50;;;;;;5052813;28;20457;-51
2021/08/27 09:33:05;;;;;;;4.30;0.90;;;23.20;56.20;;;;;;5053674;28;20036;-53
2021/08/27 09:35:31;;;;;;;1.98;1.17;;;23.10;56.10;;;;;;5051270;28;20454;-54
2021/08/27 09:37:57;;;;;;;4.55;1.00;;;23.20;56.20;;;;;;5053835;28;20100;-54
2021/08/27 09:40:29;;;;;;;2.58;1.13;;;23.20;55.60;;;;;;5052933;28;20108;-55
2021/08/27 09:42:56;;;;;;;3.67;0.90;;;23.20;55.00;;;;;;5053295;28;20493;-56
2021/08/27 09:45:48;;;;;;;1.65;0.73;;;23.20;55.20;;;;;;5053672;28;20025;-56
2021/08/27 09:48:14;;;;;;;;;;;23.20;54.80;;;;;;5054367;28;20462;-51
2021/08/27 09:50:46;;;;;;;4.35;1.10;;;23.20;54.50;;;;;;5052619;28;19905;-56
2021/08/27 09:53:13;;;;;;;2.42;1.10;;;23.20;54.30;;;;;;5053820;28;20112;-54
2021/08/27 09:55:58;;;;;;;3.72;1.23;;;23.20;54.70;;;;;;5052714;28;20091;-55
2021/08/27 09:58:25;;;;;;;1.60;0.80;;;23.20;54.60;;;;;;5053468;28;20032;-59
2021/08/27 10:01:05;;;;;;;2.28;0.80;;;23.20;54.20;;;;;;5052818;28;20064;-53
2021/08/27 10:03:31;;;;;;;1.35;0.70;;;23.20;53.60;;;;;;5052289;28;20025;-54
2021/08/27 10:05:57;;;;;;;2.17;0.88;;;23.20;54.50;;;;;;5053036;28;20040;-54
2021/08/27 10:08:32;;;;;;;1.55;0.82;;;23.20;54.10;;;;;;5052754;28;20390;-51
2021/08/27 10:11:18;;;;;;;3.67;0.95;;;23.20;53.70;;;;;;5053267;28;20025;-55
2021/08/27 10:13:44;;;;;;;3.40;1.38;;;23.20;54.30;;;;;;5052501;28;20079;-54
2021/08/27 10:16:10;;;;;;;2.65;0.85;;;23.20;54.40;;;;;;5053521;28;20029;-55
2021/08/27 10:18:36;;;;;;;1.95;0.70;;;23.20;54.50;;;;;;5052640;28;20071;-54
2021/08/27 10:21:05;;;;;;;0.98;0.60;;;23.20;54.40;;;;;;5053329;28;20075;-52
2021/08/27 10:23:30;;;;;;;1.08;0.63;;;23.20;54.60;;;;;;5052718;28;20029;-55
2021/08/27 10:25:58;;;;;;;3.25;0.88;;;23.20;54.30;;;;;;5053203;28;20060;-53
2021/08/27 10:28:29;;;;;;;2.35;0.90;;;23.10;54.30;;;;;;5053285;28;20028;-45
2021/08/27 10:30:58;;;;;;;3.03;0.90;;;23.10;54.40;;;;;;5048309;28;20029;-47
2021/08/27 10:33:39;;;;;;;2.22;0.70;;;23.10;54.00;;;;;;5053997;28;20033;-50
2021/08/27 10:36:09;;;;;;;2.90;1.00;;;23.10;54.10;;;;;;5053383;28;20437;-49
2021/08/27 10:38:45;;;;;;;4.65;0.90;;;23.20;54.10;;;;;;5051826;28;20039;-48
2021/08/27 10:41:18;;;;;;;4.55;1.30;;;23.20;53.70;;;;;;5052521;28;20032;-49
2021/08/27 10:43:55;;;;;;;6.13;1.27;;;23.20;53.70;;;;;;5051020;28;20025;-47
2021/08/27 10:46:22;;;;;;;3.00;1.00;;;23.30;53.40;;;;;;5052362;28;20029;-55
2021/08/27 10:48:54;;;;;;;2.80;1.13;;;23.20;53.50;;;;;;5050408;28;20024;-59
2021/08/27 10:51:32;;;;;;;4.00;0.80;;;23.30;53.50;;;;;;5052276;28;20421;-58
2021/08/27 10:53:57;;;;;;;3.88;1.13;;;23.30;53.50;;;;;;5052471;28;20031;-57
2021/08/27 10:56:45;;;;;;;12.70;1.20;;;23.30;52.90;;;;;;5051978;28;20025;-55
2021/08/27 10:59:13;;;;;;;3.92;0.90;;;23.30;53.10;;;;;;5050953;28;20079;-51
2021/08/27 11:01:43;;;;;;;3.50;1.05;;;23.30;53.00;;;;;;5051197;28;20032;-51
2021/08/27 11:04:31;;;;;;;4.43;1.00;;;23.30;52.80;;;;;;5051932;28;20032;-50
2021/08/27 11:07:05;;;;;;;2.45;0.95;;;23.30;52.10;;;;;;5052568;28;20086;-50
2021/08/27 11:09:35;;;;;;;6.95;1.10;;;23.30;52.70;;;;;;5052026;28;20023;-46
2021/08/27 11:12:07;;;;;;;13.73;1.48;;;23.30;52.20;;;;;;5052415;28;20032;-47
2021/08/27 11:14:34;;;;;;;15.10;1.33;;;23.40;52.40;;;;;;5051868;28;20060;-50
2021/08/27 11:17:05;;;;;;;2.75;1.00;;;23.40;52.10;;;;;;5052498;28;20032;-46
2021/08/27 11:19:36;;;;;;;8.70;1.45;;;23.40;51.80;;;;;;5051668;28;20524;-47
2021/08/27 11:22:11;;;;;;;3.67;1.20;;;23.40;51.60;;;;;;5052228;28;20029;-48
2021/08/27 11:24:38;;;;;;;2.30;0.98;;;23.40;52.20;;;;;;5051787;28;20116;-52
2021/08/27 11:27:14;;;;;;;3.72;0.82;;;23.50;51.80;;;;;;5052386;28;20036;-49
2021/08/27 11:29:42;;;;;;;2.53;0.80;;;23.50;50.90;;;;;;5050210;28;20044;-47
2021/08/27 11:32:17;;;;;;;2.97;1.25;;;23.50;51.50;;;;;;5052210;28;20378;-47
2021/08/27 11:34:56;;;;;;;4.38;0.93;;;23.50;51.80;;;;;;5051610;28;20089;-52
2021/08/27 11:37:23;;;;;;;5.20;0.93;;;23.40;50.80;;;;;;5051911;28;20116;-47
2021/08/27 11:39:50;;;;;;;4.68;1.10;;;23.40;51.10;;;;;;5051684;28;20402;-46
2021/08/27 11:42:17;;;;;;;3.08;1.15;;;23.30;51.00;;;;;;5052110;28;20096;-46
2021/08/27 11:44:44;;;;;;;3.53;0.95;;;23.30;50.80;;;;;;5051276;28;20362;-49
2021/08/27 11:47:13;;;;;;;1.83;0.98;;;23.40;51.60;;;;;;5052343;28;20029;-48
2021/08/27 11:49:58;;;;;;;2.78;1.20;;;23.40;50.50;;;;;;5051484;28;20382;-47
2021/08/27 11:52:28;;;;;;;3.00;1.42;;;23.40;50.80;;;;;;5052070;28;20029;-47
2021/08/27 11:55:06;;;;;;;2.40;1.58;;;23.50;51.20;;;;;;5052088;28;20029;-50
2021/08/27 11:57:33;;;;;;;2.33;1.02;;;23.60;51.10;;;;;;5051403;28;20017;-49
2021/08/27 12:00:10;;;;;;;3.33;1.45;;;23.40;50.40;;;;;;5050589;28;20068;-56
2021/08/27 12:02:36;;;;;;;5.43;1.55;;;23.40;50.80;;;;;;5050654;28;20090;-55
2021/08/27 12:05:05;;;;;;;8.68;1.73;;;23.40;50.40;;;;;;5055567;28;20029;-52
2021/08/27 12:07:34;;;;;;;4.30;1.00;;;23.40;50.90;;;;;;5054636;28;20040;-53
2021/08/27 12:10:06;;;;;;;3.63;0.90;;;23.40;50.60;;;;;;5055783;28;20032;-53
2021/08/27 12:12:34;;;;;;;5.47;1.25;;;23.40;50.30;;;;;;5055461;28;20041;-52
2021/08/27 12:15:00;;;;;;;2.03;1.10;;;23.50;50.50;;;;;;5053875;28;20531;-53
2021/08/27 12:17:27;;;;;;;3.95;1.42;;;23.50;50.60;;;;;;5054346;28;20021;-54
2021/08/27 12:19:58;;;;;;;6.88;0.90;;;23.40;50.60;;;;;;5054159;28;20847;-48
2021/08/27 12:22:29;;;;;;;4.90;1.30;;;23.50;50.60;;;;;;5054949;28;20063;-53
2021/08/27 12:24:55;;;;;;;4.72;1.20;;;23.50;50.80;;;;;;5054562;28;20167;-56
2021/08/27 12:27:22;;;;;;;7.53;1.00;;;23.60;50.50;;;;;;5055150;28;20029;-53
2021/08/27 12:30:11;;;;;;;3.22;1.00;;;23.60;50.30;;;;;;5054339;28;20036;-49
2021/08/27 12:32:38;;;;;;;1.58;1.00;;;23.60;50.30;;;;;;5054221;28;20098;-49
2021/08/27 12:35:12;;;;;;;3.83;1.25;;;23.60;50.00;;;;;;5055195;28;20462;-49
2021/08/27 12:37:39;;;;;;;6.90;1.25;;;23.60;50.20;;;;;;5053680;28;20028;-52
2021/08/27 12:40:09;;;;;;;3.95;1.40;;;23.50;50.40;;;;;;5055185;28;20112;-52
2021/08/27 12:42:35;;;;;;;4.78;1.20;;;23.40;50.40;;;;;;5053954;28;20033;-54
2021/08/27 12:45:03;;;;;;;3.35;1.15;;;23.40;50.80;;;;;;5054377;28;20158;-53
2021/08/27 12:47:34;;;;;;;4.82;2.63;;;23.50;50.90;;;;;;5054824;28;20025;-54
2021/08/27 12:50:04;;;;;;;6.53;1.92;;;24.10;49.90;;;;;;5054529;28;20025;-53
2021/08/27 12:52:29;;;;;;;2.35;1.50;;;24.40;49.30;;;;;;5054703;28;20029;-49